createdAt,value
2023-03-27T00:03:49.997Z,94967.69
2023-03-27T00:08:02.510Z,94966.94
2023-03-27T00:12:14.989Z,94973.78
2023-03-27T00:16:28.398Z,94972.72
2023-03-27T00:20:41.250Z,94969.09
2023-03-27T00:24:53.744Z,94953.75
2023-03-27T00:29:06.454Z,94970.75
2023-03-27T00:33:18.927Z,94963.16
2023-03-27T00:37:32.288Z,94971.50
2023-03-27T00:41:45.362Z,94954.03
2023-03-27T00:46:03.703Z,94966.13
2023-03-27T00:50:22.039Z,94978.41
2023-03-27T00:54:42.350Z,94970.69
2023-03-27T00:59:01.035Z,94983.28
2023-03-27T01:03:15.096Z,94981.59
2023-03-27T01:07:29.485Z,94966.09
2023-03-27T01:12:00.204Z,94983.88
2023-03-27T01:16:22.482Z,94963.34
2023-03-27T01:21:18.217Z,94971.53
2023-03-27T01:26:16.278Z,94965.19
2023-03-27T01:30:44.002Z,94965.22
2023-03-27T01:35:29.413Z,94974.03
2023-03-27T01:40:08.682Z,94981.22
2023-03-27T01:44:52.371Z,94981.41
2023-03-27T01:49:24.201Z,94982.16
2023-03-27T01:53:52.940Z,94982.91
2023-03-27T01:58:14.853Z,94980.50
2023-03-27T02:02:31.784Z,95004.97
2023-03-27T02:06:52.864Z,95013.03
2023-03-27T02:11:05.917Z,94999.66
2023-03-27T02:15:28.415Z,95005.41
2023-03-27T02:20:13.030Z,94998.56
2023-03-27T02:24:25.944Z,95001.75
2023-03-27T02:29:16.265Z,95009.22
2023-03-27T02:33:58.921Z,95015.44
2023-03-27T02:38:31.821Z,95009.53
2023-03-27T02:43:08.032Z,95017.59
2023-03-27T02:47:31.867Z,95029.47
2023-03-27T02:51:51.760Z,95040.41
2023-03-27T02:56:07.616Z,95043.44
2023-03-27T03:00:26.570Z,95044.81
2023-03-27T03:04:57.875Z,95049.50
2023-03-27T03:09:10.908Z,95051.19
2023-03-27T03:13:23.513Z,95041.41
2023-03-27T03:17:36.241Z,95060.28
2023-03-27T03:21:50.158Z,95059.06
2023-03-27T03:26:03.878Z,95048.13
2023-03-27T03:30:17.629Z,95081.75
2023-03-27T03:34:31.421Z,95077.44
2023-03-27T03:38:43.892Z,95065.91
2023-03-27T03:42:57.366Z,95074.41
2023-03-27T03:47:09.946Z,95086.56
2023-03-27T03:51:22.927Z,95092.03
2023-03-27T03:55:35.458Z,95108.94
2023-03-27T03:59:49.503Z,95102.38
2023-03-27T04:04:03.062Z,95124.59
2023-03-27T04:08:15.567Z,95097.94
2023-03-27T04:12:28.892Z,95120.00
2023-03-27T04:16:41.712Z,95117.38
2023-03-27T04:21:04.524Z,95112.38
2023-03-27T04:25:18.984Z,95124.84
2023-03-27T04:29:31.467Z,95123.47
2023-03-27T04:33:47.093Z,95134.88
2023-03-27T04:38:03.422Z,95159.81
2023-03-27T04:42:24.160Z,95163.81
2023-03-27T04:46:36.900Z,95172.59
2023-03-27T04:50:52.667Z,95192.25
2023-03-27T04:55:07.304Z,95220.00
2023-03-27T04:59:19.785Z,95215.38
2023-03-27T05:03:33.222Z,95229.00
2023-03-27T05:07:47.724Z,95252.31
2023-03-27T05:12:00.209Z,95260.97
2023-03-27T05:16:12.739Z,95284.97
2023-03-27T05:20:26.329Z,95316.53
2023-03-27T05:24:39.852Z,95316.41
2023-03-27T05:28:54.945Z,95327.94
2023-03-27T05:33:08.662Z,95352.22
2023-03-27T05:37:27.392Z,95365.44
2023-03-27T05:41:49.972Z,95391.69
2023-03-27T05:46:03.515Z,95390.56
2023-03-27T05:50:17.659Z,95408.22
2023-03-27T05:54:30.294Z,95409.19
2023-03-27T05:58:43.102Z,95437.47
2023-03-27T06:03:01.164Z,95452.44
2023-03-27T06:07:15.658Z,95453.53
2023-03-27T06:11:28.472Z,95468.50
2023-03-27T06:15:43.886Z,95486.97
2023-03-27T06:19:57.914Z,95494.63
2023-03-27T06:24:11.216Z,95513.50
2023-03-27T06:28:28.102Z,95536.88
2023-03-27T06:32:49.079Z,95558.72
2023-03-27T06:37:04.405Z,95555.00
2023-03-27T06:41:16.937Z,95580.38
2023-03-27T06:45:48.185Z,95589.00
2023-03-27T06:50:00.740Z,95599.63
2023-03-27T06:54:14.297Z,95606.38
2023-03-27T06:58:28.040Z,95629.13
2023-03-27T07:02:40.631Z,95641.25
2023-03-27T07:06:53.104Z,95631.88
2023-03-27T07:11:11.285Z,95651.47
2023-03-27T07:15:25.954Z,95672.19
2023-03-27T07:19:38.555Z,95676.38
2023-03-27T07:23:51.128Z,95687.81
2023-03-27T07:28:10.714Z,95704.84
2023-03-27T07:32:36.281Z,95725.31
2023-03-27T07:36:49.993Z,95722.59
2023-03-27T07:41:07.418Z,95735.56
2023-03-27T07:45:22.680Z,95746.81
2023-03-27T07:49:40.049Z,95746.34
2023-03-27T07:53:59.124Z,95765.38
2023-03-27T07:58:11.646Z,95782.63
2023-03-27T08:02:25.946Z,95786.72
2023-03-27T08:06:38.545Z,95804.13
2023-03-27T08:10:53.006Z,95822.91
2023-03-27T08:15:08.052Z,95818.63
2023-03-27T08:19:22.062Z,95838.69
2023-03-27T08:23:35.572Z,95869.38
2023-03-27T08:27:48.285Z,95863.50
2023-03-27T08:32:01.445Z,95870.81
2023-03-27T08:36:15.253Z,95889.63
2023-03-27T08:40:31.612Z,95885.47
2023-03-27T08:44:45.212Z,95904.38
2023-03-27T08:49:18.518Z,95928.16
2023-03-27T08:53:54.149Z,95927.75
2023-03-27T08:58:18.402Z,95938.44
2023-03-27T09:02:54.566Z,95959.41
2023-03-27T09:07:25.246Z,95960.53
2023-03-27T09:11:52.811Z,95971.94
2023-03-27T09:16:22.092Z,95989.78
2023-03-27T09:20:42.196Z,95995.31
2023-03-27T09:24:59.031Z,96010.13
2023-03-27T09:29:26.762Z,96029.81
2023-03-27T09:33:42.267Z,96025.50
2023-03-27T09:38:04.438Z,96027.28
2023-03-27T09:42:31.898Z,96026.94
2023-03-27T09:46:48.977Z,96046.09
2023-03-27T09:51:03.183Z,96027.22
2023-03-27T09:55:35.018Z,96050.13
2023-03-27T10:00:10.287Z,96047.91
2023-03-27T10:04:25.151Z,96043.94
2023-03-27T10:08:47.475Z,96045.38
2023-03-27T10:13:04.176Z,96051.19
2023-03-27T10:17:32.106Z,96062.28
2023-03-27T10:21:45.310Z,96063.97
2023-03-27T10:26:02.483Z,96073.97
2023-03-27T10:30:28.691Z,96088.06
2023-03-27T10:34:56.498Z,96095.16
2023-03-27T10:39:15.334Z,96091.88
2023-03-27T10:43:44.631Z,96101.97
2023-03-27T10:48:02.717Z,96122.34
2023-03-27T10:52:26.092Z,96114.47
2023-03-27T10:56:54.602Z,96134.47
2023-03-27T11:01:19.036Z,96130.97
2023-03-27T11:05:39.454Z,96140.66
2023-03-27T11:10:07.394Z,96150.16
2023-03-27T11:14:27.418Z,96142.94
2023-03-27T11:18:48.048Z,96144.31
2023-03-27T11:23:10.203Z,96148.97
2023-03-27T11:27:36.878Z,96143.94
2023-03-27T11:31:54.609Z,96148.03
2023-03-27T11:36:50.252Z,96160.28
2023-03-27T11:41:02.780Z,96154.53
2023-03-27T11:45:18.958Z,96166.69
2023-03-27T11:50:07.330Z,96174.00
2023-03-27T11:54:51.391Z,96173.13
2023-03-27T11:59:32.072Z,96180.44
2023-03-27T12:04:32.813Z,96185.56
2023-03-27T12:09:22.429Z,96198.47
2023-03-27T12:14:14.134Z,96194.19
2023-03-27T12:19:17.306Z,96190.53
2023-03-27T12:24:00.699Z,96200.00
2023-03-27T12:28:23.668Z,96204.63
2023-03-27T12:33:29.892Z,96198.66
2023-03-27T12:37:50.078Z,96211.22
2023-03-27T12:42:14.848Z,96201.47
2023-03-27T12:46:27.726Z,96195.16
2023-03-27T12:50:52.088Z,96208.44
2023-03-27T12:55:33.605Z,96211.88
2023-03-27T12:59:49.010Z,96219.53
2023-03-27T13:04:31.353Z,96225.59
2023-03-27T13:09:09.772Z,96233.97
2023-03-27T13:14:10.843Z,96230.41
2023-03-27T13:18:58.276Z,96237.38
2023-03-27T13:23:42.059Z,96203.06
2023-03-27T13:28:37.932Z,96252.84
2023-03-27T13:33:24.906Z,96246.06
2023-03-27T13:37:38.841Z,96243.94
2023-03-27T13:42:01.843Z,96240.66
2023-03-27T13:46:19.863Z,96250.69
2023-03-27T13:51:16.386Z,96249.47
2023-03-27T13:55:49.327Z,96261.78
2023-03-27T14:00:44.628Z,96268.16
2023-03-27T14:05:27.946Z,96284.91
2023-03-27T14:10:09.283Z,96287.00
2023-03-27T14:15:05.142Z,96292.63
2023-03-27T14:19:58.513Z,96300.72
2023-03-27T14:24:41.883Z,96296.88
2023-03-27T14:29:01.811Z,96308.53
2023-03-27T14:33:20.963Z,96330.81
2023-03-27T14:37:36.997Z,96325.78
2023-03-27T14:42:02.877Z,96336.91
2023-03-27T14:46:27.453Z,96338.59
2023-03-27T14:50:40.699Z,96345.03
2023-03-27T14:54:55.848Z,96342.22
2023-03-27T14:59:16.394Z,96339.47
2023-03-27T15:03:36.001Z,96336.44
2023-03-27T15:07:51.323Z,96348.88
2023-03-27T15:12:04.965Z,96357.69
2023-03-27T15:16:22.900Z,96329.41
2023-03-27T15:20:38.120Z,96355.81
2023-03-27T15:24:57.819Z,96351.91
2023-03-27T15:29:45.627Z,96363.00
2023-03-27T15:34:05.618Z,96355.38
2023-03-27T15:38:33.869Z,96371.31
2023-03-27T15:42:55.499Z,96365.22
2023-03-27T15:47:26.286Z,96369.19
2023-03-27T15:51:38.826Z,96388.13
2023-03-27T15:55:56.658Z,96380.09
2023-03-27T16:00:15.425Z,96415.09
2023-03-27T16:04:47.612Z,96425.75
2023-03-27T16:09:02.028Z,96437.97
2023-03-27T16:13:29.028Z,96418.06
2023-03-27T16:17:46.602Z,96410.66
2023-03-27T16:22:09.105Z,96423.47
2023-03-27T16:26:31.379Z,96433.59
2023-03-27T16:30:44.055Z,96432.84
2023-03-27T16:34:56.477Z,96435.09
2023-03-27T16:39:10.620Z,96446.13
2023-03-27T16:43:23.095Z,96453.72
2023-03-27T16:47:35.704Z,96463.66
2023-03-27T16:51:48.224Z,96468.53
2023-03-27T16:56:03.733Z,96467.16
2023-03-27T17:00:24.238Z,96478.94
2023-03-27T17:04:46.355Z,96477.38
2023-03-27T17:08:58.952Z,96485.72
2023-03-27T17:13:11.736Z,96498.03
2023-03-27T17:17:34.271Z,96496.06
2023-03-27T17:21:46.914Z,96496.34
2023-03-27T17:26:04.283Z,96524.13
2023-03-27T17:30:26.891Z,96518.00
2023-03-27T17:34:47.568Z,96540.16
2023-03-27T17:39:06.862Z,96538.00
2023-03-27T17:43:19.358Z,96548.78
2023-03-27T17:47:35.926Z,96540.84
2023-03-27T17:51:48.337Z,96552.88
2023-03-27T17:56:01.171Z,96557.69
2023-03-27T18:00:14.942Z,96569.50
2023-03-27T18:04:27.432Z,96563.81
2023-03-27T18:08:40.014Z,96577.44
2023-03-27T18:12:52.458Z,96547.50
2023-03-27T18:17:05.020Z,96570.34
2023-03-27T18:21:17.496Z,96575.34
2023-03-27T18:25:30.229Z,96587.91
2023-03-27T18:29:43.396Z,96591.41
2023-03-27T18:33:55.989Z,96577.78
2023-03-27T18:38:08.581Z,96585.94
2023-03-27T18:42:21.084Z,96601.50
2023-03-27T18:46:33.585Z,96610.44
2023-03-27T18:50:46.060Z,96608.09
2023-03-27T18:54:58.578Z,96614.34
2023-03-27T18:59:11.834Z,96610.50
2023-03-27T19:03:26.914Z,96622.53
2023-03-27T19:07:44.844Z,96628.44
2023-03-27T19:11:58.083Z,96620.94
2023-03-27T19:16:14.549Z,96632.25
2023-03-27T19:20:28.509Z,96631.09
2023-03-27T19:24:42.027Z,96619.94
2023-03-27T19:28:54.581Z,96626.56
2023-03-27T19:33:07.528Z,96639.41
2023-03-27T19:37:20.722Z,96623.13
2023-03-27T19:41:33.861Z,96618.88
2023-03-27T19:46:14.284Z,96639.47
2023-03-27T19:50:27.941Z,96648.81
2023-03-27T19:54:40.445Z,96642.59
2023-03-27T19:58:53.147Z,96648.81
2023-03-27T20:03:10.970Z,96645.72
2023-03-27T20:07:23.541Z,96651.91
2023-03-27T20:11:36.214Z,96636.38
2023-03-27T20:15:52.117Z,96648.75
2023-03-27T20:20:11.368Z,96644.91
2023-03-27T20:24:24.432Z,96652.69
2023-03-27T20:28:37.186Z,96642.59
2023-03-27T20:32:49.648Z,96630.94
2023-03-27T20:37:04.334Z,96636.00
2023-03-27T20:41:16.832Z,96642.19
2023-03-27T20:45:31.620Z,96636.00
2023-03-27T20:49:48.774Z,96649.19
2023-03-27T20:54:01.282Z,96639.13
2023-03-27T20:58:13.822Z,96639.88
2023-03-27T21:02:26.477Z,96644.53
2023-03-27T21:06:40.828Z,96651.91
2023-03-27T21:10:55.004Z,96653.09
2023-03-27T21:15:08.094Z,96651.91
2023-03-27T21:19:29.689Z,96648.81
2023-03-27T21:23:42.306Z,96649.19
2023-03-27T21:27:55.034Z,96646.47
2023-03-27T21:32:16.808Z,96662.41
2023-03-27T21:36:29.994Z,96657.75
2023-03-27T21:40:42.824Z,96658.13
2023-03-27T21:44:57.231Z,96665.50
2023-03-27T21:49:09.877Z,96674.78
2023-03-27T21:53:22.331Z,96668.63
2023-03-27T21:57:44.769Z,96675.22
2023-03-27T22:01:57.505Z,96666.66
2023-03-27T22:06:13.539Z,96684.13
2023-03-27T22:10:26.186Z,96690.75
2023-03-27T22:14:38.696Z,96678.69
2023-03-27T22:18:51.447Z,96699.31
2023-03-27T22:23:03.904Z,96707.81
2023-03-27T22:27:17.263Z,96708.19
2023-03-27T22:31:30.070Z,96706.69
2023-03-27T22:35:49.758Z,96721.03
2023-03-27T22:40:02.318Z,96711.72
2023-03-27T22:44:14.774Z,96724.16
2023-03-27T22:48:27.283Z,96729.56
2023-03-27T22:52:40.175Z,96726.44
2023-03-27T22:56:55.876Z,96747.03
2023-03-27T23:01:14.310Z,96742.00
2023-03-27T23:05:26.971Z,96749.81
2023-03-27T23:09:39.438Z,96759.13
2023-03-27T23:13:51.889Z,96750.94
2023-03-27T23:18:05.556Z,96766.94
2023-03-27T23:22:18.084Z,96746.69
2023-03-27T23:26:30.535Z,96761.03
2023-03-27T23:30:45.328Z,96768.47
2023-03-27T23:34:57.759Z,96766.13
2023-03-27T23:39:10.216Z,96756.81
2023-03-27T23:43:22.625Z,96787.50
2023-03-27T23:47:35.080Z,96781.69
2023-03-27T23:51:47.692Z,96788.69
2023-03-27T23:56:01.300Z,96788.28
